Time;durP1;ratioP1;P1;durP2;ratioP2;P2;SDS_P1;SDS_P2;PMS_P1;PMS_P2;Temp;Humidity;BMP_temperature;BMP_pressure;BME280_temperature;BME280_humidity;BME280_pressure;Samples;Min_cycle;Max_cycle;Signal;HPM_P1;HPM_P2
2021/05/01 00:00:19;;;;;;;2.35;1.70;;;20.60;46.30;;;;;;1015617;29;20486;-77
2021/05/01 00:00:50;;;;;;;4.63;1.88;;;20.70;46.40;;;;;;1020253;29;20110;-78
2021/05/01 00:01:20;;;;;;;1.83;1.70;;;20.60;46.40;;;;;;1012419;29;20033;-79
2021/05/01 00:01:51;;;;;;;3.97;1.70;;;20.60;46.40;;;;;;1016037;29;20028;-79
2021/05/01 00:02:21;;;;;;;2.22;1.80;;;20.60;46.40;;;;;;1016046;29;20044;-78
2021/05/01 00:02:52;;;;;;;4.40;1.67;;;20.70;46.50;;;;;;1016150;29;20029;-77
2021/05/01 00:03:22;;;;;;;2.55;1.80;;;20.70;46.40;;;;;;1016243;29;20416;-77
2021/05/01 00:03:53;;;;;;;5.80;1.67;;;20.70;46.50;;;;;;1011774;29;20028;-78
2021/05/01 00:04:24;;;;;;;1.60;1.50;;;20.70;46.50;;;;;;1012225;29;20084;-78
2021/05/01 00:04:54;;;;;;;2.80;1.80;;;20.70;46.50;;;;;;1012265;29;20506;-79
2021/05/01 00:05:25;;;;;;;3.97;1.95;;;20.70;46.40;;;;;;1012054;29;20016;-78
2021/05/01 00:05:55;;;;;;;3.30;1.95;;;20.70;47.10;;;;;;1008401;29;20025;-78
2021/05/01 00:06:26;;;;;;;3.95;1.70;;;20.70;46.40;;;;;;1012165;29;20452;-79
2021/05/01 00:06:56;;;;;;;2.45;1.92;;;20.70;46.50;;;;;;1015842;29;20431;-77
2021/05/01 00:07:27;;;;;;;2.17;1.70;;;20.60;46.40;;;;;;1016109;29;20047;-78
2021/05/01 00:07:57;;;;;;;2.63;1.83;;;20.70;46.50;;;;;;1020219;29;20486;-78
2021/05/01 00:08:29;;;;;;;2.88;1.67;;;20.70;47.10;;;;;;1024022;29;20482;-77
2021/05/01 00:08:59;;;;;;;4.65;1.88;;;20.70;46.50;;;;;;1019472;29;20039;-77
2021/05/01 00:09:29;;;;;;;2.83;2.10;;;20.70;46.60;;;;;;1015877;29;20039;-77
2021/05/01 00:10:00;;;;;;;14.15;2.45;;;20.60;46.50;;;;;;1015949;29;20111;-77
2021/05/01 00:10:31;;;;;;;2.65;1.80;;;20.70;46.60;;;;;;1015915;29;20009;-77
2021/05/01 00:11:02;;;;;;;2.97;1.80;;;20.60;46.50;;;;;;1016150;29;20095;-78
2021/05/01 00:11:33;;;;;;;4.55;1.80;;;20.60;46.50;;;;;;1008210;29;20017;-78
2021/05/01 00:12:04;;;;;;;2.13;1.65;;;20.60;46.50;;;;;;1008576;29;20028;-76
2021/05/01 00:12:34;;;;;;;1.70;1.60;;;20.70;46.60;;;;;;1008546;29;20108;-78
2021/05/01 00:13:05;;;;;;;3.75;1.88;;;20.70;46.50;;;;;;1012243;29;20027;-78
2021/05/01 00:13:35;;;;;;;2.10;1.50;;;20.70;46.50;;;;;;1011193;29;20012;-78
2021/05/01 00:14:06;;;;;;;1.90;1.70;;;20.60;46.50;;;;;;1015957;29;20023;-78
2021/05/01 00:14:38;;;;;;;3.10;1.88;;;20.60;46.50;;;;;;1016008;29;20023;-77
2021/05/01 00:15:09;;;;;;;1.98;1.80;;;20.70;46.50;;;;;;1007445;29;20019;-78
2021/05/01 00:15:40;;;;;;;4.30;2.05;;;20.70;46.60;;;;;;1011856;29;20016;-77
2021/05/01 00:16:10;;;;;;;2.40;1.83;;;20.60;46.50;;;;;;1015986;29;20028;-78
2021/05/01 00:16:41;;;;;;;1.92;1.58;;;20.70;46.60;;;;;;1019825;29;20089;-78
2021/05/01 00:17:11;;;;;;;2.75;1.65;;;20.60;46.60;;;;;;1011977;29;20441;-77
2021/05/01 00:17:42;;;;;;;1.75;1.65;;;20.60;46.60;;;;;;1012256;29;20017;-78
2021/05/01 00:18:12;;;;;;;2.70;1.77;;;20.70;46.70;;;;;;1019998;29;20387;-77
2021/05/01 00:18:43;;;;;;;1.92;1.77;;;20.60;46.60;;;;;;1019460;29;20011;-77
2021/05/01 00:19:13;;;;;;;2.58;1.60;;;20.70;46.70;;;;;;1019728;29;20027;-77
2021/05/01 00:19:44;;;;;;;1.80;1.70;;;20.70;46.70;;;;;;1019883;29;20008;-77
2021/05/01 00:20:14;;;;;;;1.92;1.60;;;20.70;46.70;;;;;;1012027;29;20048;-77
2021/05/01 00:20:45;;;;;;;1.75;1.60;;;20.70;46.70;;;;;;1008395;29;20022;-77
2021/05/01 00:21:15;;;;;;;3.75;1.90;;;20.70;46.70;;;;;;1008196;29;20099;-77
2021/05/01 00:21:46;;;;;;;3.40;1.70;;;20.70;46.70;;;;;;1008426;29;20511;-77
2021/05/01 00:22:17;;;;;;;3.25;1.70;;;20.70;46.70;;;;;;1008042;29;20017;-78
2021/05/01 00:22:47;;;;;;;2.20;1.60;;;20.60;46.70;;;;;;1008465;29;20065;-77
2021/05/01 00:23:18;;;;;;;2.65;1.65;;;20.70;46.80;;;;;;1012086;29;20024;-78
2021/05/01 00:23:48;;;;;;;3.40;2.00;;;20.70;46.80;;;;;;1019434;29;20020;-77
2021/05/01 00:24:19;;;;;;;1.70;1.60;;;20.70;46.80;;;;;;1019775;29;20494;-78
2021/05/01 00:24:49;;;;;;;1.80;1.70;;;20.60;46.80;;;;;;1015980;29;20016;-78
2021/05/01 00:25:20;;;;;;;1.70;1.60;;;20.60;46.80;;;;;;1011880;29;20517;-77
2021/05/01 00:25:50;;;;;;;1.80;1.63;;;20.60;46.80;;;;;;1012084;29;20029;-77
2021/05/01 00:26:21;;;;;;;3.70;1.80;;;20.60;46.80;;;;;;1012007;29;20117;-77
2021/05/01 00:26:51;;;;;;;1.75;1.50;;;20.70;46.90;;;;;;1015913;29;20238;-78
2021/05/01 00:27:22;;;;;;;1.90;1.52;;;20.60;46.80;;;;;;1008181;29;20017;-76
2021/05/01 00:27:53;;;;;;;1.70;1.60;;;20.60;46.80;;;;;;1019874;29;20012;-78
2021/05/01 00:28:24;;;;;;;2.42;1.88;;;20.60;46.80;;;;;;1019868;29;20309;-77
2021/05/01 00:28:55;;;;;;;2.30;1.58;;;20.60;46.80;;;;;;1011860;29;20040;-78
2021/05/01 00:29:25;;;;;;;1.90;1.80;;;20.60;46.80;;;;;;1011841;29;20021;-78
2021/05/01 00:29:56;;;;;;;1.90;1.70;;;20.60;46.80;;;;;;1013217;29;20479;-78
2021/05/01 00:30:26;;;;;;;2.58;1.73;;;20.60;46.80;;;;;;1011289;29;20109;-77
2021/05/01 00:30:57;;;;;;;2.53;1.70;;;20.60;46.80;;;;;;1012040;29;20544;-77
2021/05/01 00:31:29;;;;;;;2.25;1.95;;;20.60;46.80;;;;;;1008316;29;20028;-77
2021/05/01 00:31:59;;;;;;;1.55;1.45;;;20.60;46.80;;;;;;1016280;29;20039;-77
2021/05/01 00:32:30;;;;;;;2.17;1.80;;;20.60;46.80;;;;;;1015942;29;20024;-77
2021/05/01 00:33:00;;;;;;;3.55;1.73;;;20.70;46.80;;;;;;1016119;29;20052;-78
2021/05/01 00:33:31;;;;;;;2.63;2.00;;;20.60;46.80;;;;;;1011226;29;20016;-78
2021/05/01 00:34:03;;;;;;;2.28;1.80;;;20.60;46.80;;;;;;1015931;29;20059;-77
2021/05/01 00:34:33;;;;;;;1.65;1.50;;;20.60;46.80;;;;;;1016111;29;20076;-77
2021/05/01 00:35:04;;;;;;;2.22;1.80;;;20.60;46.80;;;;;;1019858;29;20091;-78
2021/05/01 00:35:35;;;;;;;1.60;1.50;;;20.60;46.80;;;;;;1019418;29;20494;-78
2021/05/01 00:36:05;;;;;;;1.92;1.73;;;20.60;46.80;;;;;;1019489;29;20115;-78
2021/05/01 00:36:36;;;;;;;3.95;1.63;;;20.60;46.80;;;;;;1015782;29;20079;-78
2021/05/01 00:37:06;;;;;;;3.70;1.85;;;20.60;47.40;;;;;;1019845;29;20020;-78
2021/05/01 00:37:37;;;;;;;1.85;1.60;;;20.60;46.80;;;;;;1015934;29;20055;-78
2021/05/01 00:38:07;;;;;;;2.75;1.60;;;20.60;46.90;;;;;;1015813;29;20419;-78
2021/05/01 00:38:38;;;;;;;1.70;1.60;;;20.60;46.90;;;;;;1019294;29;20014;-78
2021/05/01 00:39:09;;;;;;;1.95;1.70;;;20.60;46.90;;;;;;1011866;29;20578;-79
2021/05/01 00:39:40;;;;;;;1.67;1.58;;;20.60;47.00;;;;;;1015812;29;20067;-77
2021/05/01 00:40:40;;;;;;;2.83;1.80;;;20.60;46.90;;;;;;1039673;23;20062;-85
2021/05/01 00:41:11;;;;;;;3.42;1.73;;;20.60;46.90;;;;;;1028116;28;20099;-85
2021/05/01 00:41:45;;;;;;;2.00;1.70;;;20.60;46.90;;;;;;1025223;29;20482;-85
2021/05/01 00:42:16;;;;;;;2.08;1.70;;;20.60;46.80;;;;;;1032791;28;20015;-87
2021/05/01 00:42:46;;;;;;;1.77;1.60;;;20.60;46.90;;;;;;1020659;29;20015;-87
2021/05/01 00:43:17;;;;;;;1.77;1.67;;;20.60;46.90;;;;;;1008879;29;20021;-89
2021/05/01 00:43:47;;;;;;;1.70;1.60;;;20.60;46.80;;;;;;1017116;29;20016;-87
2021/05/01 00:44:18;;;;;;;1.98;1.73;;;20.60;46.90;;;;;;1014888;29;20028;-88
2021/05/01 00:44:48;;;;;;;2.88;1.75;;;20.60;46.90;;;;;;1016799;29;20020;-87
2021/05/01 00:45:19;;;;;;;1.65;1.45;;;20.60;46.90;;;;;;1016863;29;20020;-87
2021/05/01 00:45:49;;;;;;;1.80;1.70;;;20.60;46.90;;;;;;1016742;29;20020;-87
2021/05/01 00:46:20;;;;;;;1.70;1.60;;;20.60;46.90;;;;;;1016544;29;20020;-86
2021/05/01 00:46:51;;;;;;;1.55;1.30;;;20.60;47.00;;;;;;1024493;29;20025;-86
2021/05/01 00:47:21;;;;;;;3.05;1.85;;;20.60;47.00;;;;;;1016941;29;20020;-85
2021/05/01 00:47:52;;;;;;;3.42;1.60;;;20.60;47.00;;;;;;1017351;29;20041;-85
2021/05/01 00:48:22;;;;;;;1.83;1.70;;;20.60;47.00;;;;;;1017008;29;20471;-87
2021/05/01 00:48:53;;;;;;;1.70;1.60;;;20.60;47.00;;;;;;1020766;29;20079;-90
2021/05/01 00:49:23;;;;;;;2.00;1.40;;;20.60;47.00;;;;;;1020660;29;20016;-87
2021/05/01 00:49:54;;;;;;;1.80;1.60;;;20.60;47.00;;;;;;1012853;29;20226;-90
2021/05/01 00:50:24;;;;;;;1.77;1.63;;;20.60;46.90;;;;;;1018259;29;20091;-87
2021/05/01 00:50:55;;;;;;;1.83;1.60;;;20.70;47.10;;;;;;1013791;29;20053;-87
2021/05/01 00:51:25;;;;;;;1.80;1.70;;;20.70;46.90;;;;;;1016898;29;20024;-89
2021/05/01 00:51:56;;;;;;;1.73;1.63;;;20.60;46.80;;;;;;1023214;29;20015;-86
2021/05/01 00:52:26;;;;;;;1.48;1.38;;;20.70;46.90;;;;;;1017045;29;20004;-87
2021/05/01 00:52:57;;;;;;;2.15;1.75;;;20.70;46.90;;;;;;1019323;29;20083;-88
2021/05/01 00:53:28;;;;;;;1.48;1.38;;;20.70;46.80;;;;;;1025134;29;20015;-87
2021/05/01 00:53:58;;;;;;;1.80;1.52;;;20.70;46.80;;;;;;1020115;29;20028;-87
2021/05/01 00:54:29;;;;;;;1.60;1.50;;;20.60;46.80;;;;;;1020600;29;20020;-88
2021/05/01 00:54:59;;;;;;;1.75;1.60;;;20.60;46.80;;;;;;1017034;29;20063;-87
2021/05/01 00:55:31;;;;;;;2.45;1.63;;;20.60;46.90;;;;;;1016377;29;20030;-87
2021/05/01 00:56:01;;;;;;;1.60;1.40;;;20.60;46.90;;;;;;1013243;29;20032;-86
2021/05/01 00:56:32;;;;;;;1.63;1.52;;;20.60;46.90;;;;;;1024057;29;20050;-89
2021/05/01 00:57:02;;;;;;;2.00;1.60;;;20.60;46.90;;;;;;1024319;29;20015;-88
2021/05/01 00:57:33;;;;;;;3.10;1.70;;;20.60;47.00;;;;;;1024149;29;20019;-87
2021/05/01 00:58:04;;;;;;;7.13;1.70;;;20.70;47.20;;;;;;1027791;28;20030;-89
2021/05/01 00:58:34;;;;;;;3.78;1.52;;;20.60;47.60;;;;;;1019345;29;20574;-86
2021/05/01 00:59:05;;;;;;;4.28;1.70;;;20.60;47.30;;;;;;1023796;29;20015;-86
2021/05/01 00:59:35;;;;;;;4.47;1.65;;;20.60;47.30;;;;;;1015903;29;20012;-87
2021/05/01 01:00:13;;;;;;;2.58;1.60;;;20.60;47.20;;;;;;1018425;29;20342;-89
2021/05/01 01:00:59;;;;;;;5.63;1.73;;;20.60;47.30;;;;;;1023846;29;20495;-87
2021/05/01 01:01:30;;;;;;;6.35;1.80;;;20.60;47.30;;;;;;1019561;29;20026;-87
2021/05/01 01:02:01;;;;;;;2.75;1.60;;;20.60;47.30;;;;;;1015724;29;20072;-87
2021/05/01 01:02:32;;;;;;;1.92;1.65;;;20.60;47.30;;;;;;1011879;29;20549;-88
2021/05/01 01:03:02;;;;;;;1.92;1.70;;;20.70;47.30;;;;;;1019148;29;20007;-88
2021/05/01 01:03:33;;;;;;;3.03;1.80;;;20.60;47.30;;;;;;1007604;29;20016;-87
2021/05/01 01:04:04;;;;;;;3.00;1.60;;;20.60;47.30;;;;;;1015814;29;20016;-87
2021/05/01 01:04:35;;;;;;;1.42;1.33;;;20.60;47.40;;;;;;1015713;29;20103;-88
2021/05/01 01:05:05;;;;;;;4.32;1.40;;;20.60;47.30;;;;;;1007999;29;20017;-87
2021/05/01 01:05:36;;;;;;;1.63;1.48;;;20.60;47.30;;;;;;1011724;29;20017;-88
2021/05/01 01:06:07;;;;;;;3.42;1.42;;;20.60;47.40;;;;;;1011927;29;20103;-87
2021/05/01 01:06:37;;;;;;;2.63;1.83;;;20.60;47.40;;;;;;1004029;29;20425;-88
2021/05/01 01:07:08;;;;;;;2.92;1.70;;;20.60;47.40;;;;;;1008127;29;20013;-87
2021/05/01 01:07:38;;;;;;;2.00;1.40;;;20.60;47.40;;;;;;1007928;29;20048;-85
2021/05/01 01:08:09;;;;;;;1.35;1.23;;;20.60;47.30;;;;;;1012371;29;20021;-88
2021/05/01 01:08:40;;;;;;;3.08;1.60;;;20.60;47.40;;;;;;1015691;29;20023;-88
2021/05/01 01:09:11;;;;;;;3.72;1.73;;;20.60;47.30;;;;;;1016198;29;20103;-88
2021/05/01 01:09:41;;;;;;;1.55;1.45;;;20.60;47.40;;;;;;1016165;29;20012;-86
2021/05/01 01:10:12;;;;;;;2.30;1.52;;;20.60;47.40;;;;;;1013345;29;20120;-86
2021/05/01 01:10:42;;;;;;;4.03;1.35;;;20.60;47.40;;;;;;1008418;29;20013;-89
2021/05/01 01:11:13;;;;;;;2.65;1.40;;;20.60;47.50;;;;;;1015853;29;20028;-87
2021/05/01 01:11:44;;;;;;;2.40;1.60;;;20.60;47.50;;;;;;1012125;29;20032;-87
2021/05/01 01:12:16;;;;;;;3.05;1.40;;;20.60;47.50;;;;;;1016039;29;20028;-88
2021/05/01 01:12:46;;;;;;;1.42;1.33;;;20.60;47.50;;;;;;1020269;29;20122;-88
2021/05/01 01:13:17;;;;;;;3.08;1.48;;;20.60;47.50;;;;;;1016361;29;20079;-87
2021/05/01 01:13:47;;;;;;;3.15;1.50;;;20.60;47.50;;;;;;1019605;29;20086;-87
2021/05/01 01:14:18;;;;;;;1.50;1.40;;;20.60;47.50;;;;;;1020249;29;20083;-87
2021/05/01 01:14:48;;;;;;;1.65;1.40;;;20.60;47.50;;;;;;1024089;29;20015;-86
2021/05/01 01:15:23;;;;;;;2.88;1.30;;;20.60;47.50;;;;;;1026960;28;20014;-89
2021/05/01 01:15:54;;;;;;;2.70;1.60;;;20.60;47.40;;;;;;1012205;29;20020;-86
2021/05/01 01:16:24;;;;;;;2.45;1.30;;;20.60;47.50;;;;;;1016190;29;20499;-87
2021/05/01 01:16:55;;;;;;;1.77;1.35;;;20.60;47.50;;;;;;1024056;29;20030;-88
2021/05/01 01:17:26;;;;;;;2.63;1.42;;;20.60;47.50;;;;;;1023813;29;20019;-84
2021/05/01 01:17:56;;;;;;;3.10;1.50;;;20.60;47.50;;;;;;1016349;29;20091;-86
2021/05/01 01:18:27;;;;;;;1.95;1.40;;;20.60;47.50;;;;;;1023980;29;20425;-87
2021/05/01 01:18:58;;;;;;;1.45;1.35;;;20.60;47.60;;;;;;1019934;29;20099;-87
2021/05/01 01:19:28;;;;;;;2.22;1.50;;;20.60;47.60;;;;;;1022228;29;20550;-86
2021/05/01 01:19:59;;;;;;;1.42;1.33;;;20.60;47.60;;;;;;1016759;29;20052;-88
2021/05/01 01:20:29;;;;;;;1.80;1.35;;;20.60;47.60;;;;;;1020368;29;20023;-86
2021/05/01 01:21:02;;;;;;;1.98;1.42;;;20.60;47.60;;;;;;1016559;29;20024;-86
2021/05/01 01:21:48;;;;;;;1.95;1.38;;;20.60;47.60;;;;;;1012472;29;20029;-87
2021/05/01 01:22:19;;;;;;;1.50;1.30;;;20.60;47.50;;;;;;1016328;29;20072;-89
2021/05/01 01:22:49;;;;;;;1.48;1.38;;;20.60;47.60;;;;;;1020389;29;20024;-87
2021/05/01 01:23:20;;;;;;;2.00;1.58;;;20.60;47.60;;;;;;1016397;29;20127;-87
2021/05/01 01:23:51;;;;;;;1.90;1.45;;;20.60;47.60;;;;;;1019859;29;20455;-86
2021/05/01 01:24:24;;;;;;;2.17;1.35;;;20.60;47.60;;;;;;1012658;29;20430;-86
2021/05/01 01:24:55;;;;;;;3.03;1.48;;;20.60;47.60;;;;;;1016406;29;20068;-87
2021/05/01 01:25:25;;;;;;;2.42;1.58;;;20.60;47.60;;;;;;1012311;29;20024;-87
2021/05/01 01:25:56;;;;;;;1.85;1.40;;;20.60;47.50;;;;;;1016750;29;20024;-88
2021/05/01 01:26:26;;;;;;;2.20;1.50;;;20.60;47.50;;;;;;1004211;29;20086;-88
2021/05/01 01:26:57;;;;;;;2.05;1.33;;;20.60;47.50;;;;;;1012156;29;20028;-88
2021/05/01 01:27:28;;;;;;;2.75;1.30;;;20.60;47.60;;;;;;1012098;29;20032;-88
2021/05/01 01:28:01;;;;;;;2.28;1.30;;;20.60;47.60;;;;;;1011984;29;20049;-87
2021/05/01 01:28:32;;;;;;;2.70;1.50;;;20.60;47.60;;;;;;1018999;29;20127;-88
2021/05/01 01:29:03;;;;;;;2.92;1.70;;;20.60;47.70;;;;;;1015914;29;20039;-89
2021/05/01 01:29:35;;;;;;;1.42;1.23;;;20.60;47.70;;;;;;1016066;29;20450;-88
2021/05/01 01:30:06;;;;;;;1.42;1.33;;;20.50;47.60;;;;;;1007402;29;20023;-87
2021/05/01 01:30:37;;;;;;;1.50;1.40;;;20.60;47.70;;;;;;1011826;29;20434;-88
2021/05/01 01:31:07;;;;;;;3.60;1.40;;;20.60;47.60;;;;;;1024004;29;20031;-88
2021/05/01 01:31:38;;;;;;;2.75;1.38;;;20.60;47.60;;;;;;1023886;29;20019;-87
2021/05/01 01:32:09;;;;;;;1.60;1.30;;;20.60;47.60;;;;;;1011927;29;20064;-87
2021/05/01 01:32:40;;;;;;;1.38;1.20;;;20.60;47.60;;;;;;1012213;29;20023;-88
2021/05/01 01:33:11;;;;;;;1.52;1.30;;;20.60;47.60;;;;;;1019712;29;20068;-89
2021/05/01 01:33:41;;;;;;;1.58;1.48;;;20.60;47.60;;;;;;1015924;29;20043;-88
2021/05/01 01:34:12;;;;;;;1.80;1.40;;;20.60;47.60;;;;;;1016414;29;20083;-87
2021/05/01 01:34:43;;;;;;;1.40;1.30;;;20.60;47.60;;;;;;1020643;29;20054;-88
2021/05/01 01:35:14;;;;;;;3.40;1.55;;;20.60;47.70;;;;;;1012610;29;20017;-85
2021/05/01 01:35:44;;;;;;;1.30;1.20;;;20.60;47.60;;;;;;1005080;29;20018;-87
2021/05/01 01:36:15;;;;;;;1.83;1.20;;;20.60;47.60;;;;;;1010731;29;20073;-88
2021/05/01 01:36:45;;;;;;;1.40;1.30;;;20.60;47.70;;;;;;1016533;29;20059;-87
2021/05/01 01:37:16;;;;;;;1.70;1.38;;;20.60;47.60;;;;;;1012786;29;20136;-89
2021/05/01 01:37:46;;;;;;;3.38;1.27;;;20.60;47.70;;;;;;1020873;29;20020;-86
2021/05/01 01:38:17;;;;;;;1.42;1.33;;;20.60;47.60;;;;;;1016859;29;20443;-86
2021/05/01 01:38:47;;;;;;;2.70;1.40;;;20.60;47.60;;;;;;1015878;29;20119;-87
2021/05/01 01:39:20;;;;;;;1.42;1.33;;;20.60;47.60;;;;;;1012341;29;20024;-87
2021/05/01 01:39:50;;;;;;;1.52;1.27;;;20.60;47.60;;;;;;1015988;29;20017;-87
2021/05/01 01:40:21;;;;;;;1.42;1.30;;;20.60;47.70;;;;;;1019504;29;20023;-86
2021/05/01 01:40:52;;;;;;;1.40;1.30;;;20.60;47.70;;;;;;1016199;29;20017;-87
2021/05/01 01:41:22;;;;;;;3.13;1.42;;;20.60;47.70;;;;;;1019576;29;20387;-87
2021/05/01 01:41:53;;;;;;;1.77;1.27;;;20.60;47.70;;;;;;1016097;29;20032;-87
2021/05/01 01:42:23;;;;;;;1.70;1.48;;;20.60;47.70;;;;;;1008014;29;20617;-87
2021/05/01 01:42:54;;;;;;;1.50;1.40;;;20.60;47.80;;;;;;1012306;29;20040;-86
2021/05/01 01:43:25;;;;;;;1.98;1.10;;;20.60;47.70;;;;;;1023639;29;20046;-88
2021/05/01 01:43:56;;;;;;;1.50;1.30;;;20.60;47.70;;;;;;1019236;29;20047;-87
2021/05/01 01:44:26;;;;;;;3.90;1.30;;;20.60;47.80;;;;;;1011774;29;20172;-85
2021/05/01 01:44:57;;;;;;;1.90;1.20;;;20.60;47.80;;;;;;1015429;29;20258;-88
2021/05/01 01:45:27;;;;;;;2.70;1.10;;;20.60;47.70;;;;;;1018439;29;20036;-88
2021/05/01 01:46:00;;;;;;;1.48;1.20;;;20.60;47.80;;;;;;1011884;29;20029;-87
2021/05/01 01:46:33;;;;;;;2.08;1.38;;;20.60;47.70;;;;;;1015631;29;20022;-87
2021/05/01 01:47:03;;;;;;;2.25;1.40;;;20.70;47.80;;;;;;1011620;29;20024;-88
2021/05/01 01:47:34;;;;;;;1.70;1.30;;;20.60;47.70;;;;;;1011891;29;20045;-87
2021/05/01 01:48:05;;;;;;;1.85;1.27;;;20.60;47.70;;;;;;1019487;29;20020;-89
2021/05/01 01:48:35;;;;;;;1.70;1.40;;;20.70;47.70;;;;;;1011256;29;20049;-86
2021/05/01 01:49:06;;;;;;;1.48;1.33;;;20.70;47.80;;;;;;1015523;29;20020;-87
2021/05/01 01:49:39;;;;;;;1.52;1.38;;;20.70;47.70;;;;;;1019617;29;20406;-87
2021/05/01 01:50:12;;;;;;;1.77;1.30;;;20.70;47.70;;;;;;1013534;29;20016;-87
2021/05/01 01:50:42;;;;;;;3.30;1.20;;;20.70;47.70;;;;;;1016370;29;20380;-87
2021/05/01 01:51:13;;;;;;;1.55;1.25;;;20.70;47.70;;;;;;1012099;29;20120;-87
2021/05/01 01:51:43;;;;;;;2.55;1.17;;;20.70;47.70;;;;;;1016128;29;20017;-87
2021/05/01 01:52:14;;;;;;;1.30;1.20;;;20.70;47.70;;;;;;1020058;29;20051;-88
2021/05/01 01:52:44;;;;;;;1.58;1.25;;;20.60;47.60;;;;;;1012057;29;20021;-86
2021/05/01 01:53:15;;;;;;;2.55;1.25;;;20.60;47.70;;;;;;1012056;29;20024;-85
2021/05/01 01:53:46;;;;;;;3.92;1.45;;;20.60;47.70;;;;;;1019370;29;20018;-87
2021/05/01 01:54:16;;;;;;;1.52;1.20;;;20.60;47.70;;;;;;1015688;29;20024;-87
2021/05/01 01:54:47;;;;;;;1.33;1.20;;;20.60;47.80;;;;;;1008035;29;20464;-87
2021/05/01 01:55:19;;;;;;;2.38;1.40;;;20.60;47.70;;;;;;1011319;29;20023;-87
2021/05/01 01:55:50;;;;;;;1.38;1.20;;;20.60;47.80;;;;;;1015912;29;20627;-88
2021/05/01 01:56:20;;;;;;;2.45;1.20;;;20.60;47.80;;;;;;1015609;29;20012;-86
2021/05/01 01:56:51;;;;;;;1.60;1.30;;;20.60;47.90;;;;;;1012486;29;20121;-90
2021/05/01 01:57:21;;;;;;;1.40;1.30;;;20.60;47.80;;;;;;1016192;29;20072;-86
2021/05/01 01:57:52;;;;;;;1.98;1.27;;;20.60;47.90;;;;;;1012326;29;20068;-87
2021/05/01 01:58:22;;;;;;;1.30;1.20;;;20.50;47.80;;;;;;1020222;29;20459;-87
2021/05/01 01:58:54;;;;;;;3.05;1.30;;;20.60;47.90;;;;;;1011936;29;20029;-88
2021/05/01 01:59:24;;;;;;;1.38;1.27;;;20.50;47.90;;;;;;1012334;29;20020;-87
2021/05/01 01:59:55;;;;;;;1.35;1.25;;;20.60;47.90;;;;;;1008447;29;20053;-86
2021/05/01 02:00:27;;;;;;;1.45;1.25;;;20.60;47.80;;;;;;1011867;29;20028;-88
2021/05/01 02:00:57;;;;;;;2.60;1.35;;;20.60;47.80;;;;;;1012578;29;20048;-88
2021/05/01 02:01:28;;;;;;;2.03;1.42;;;20.60;47.80;;;;;;1012244;29;20021;-88
2021/05/01 02:01:58;;;;;;;1.23;1.13;;;20.60;47.90;;;;;;1012330;29;20020;-87
2021/05/01 02:02:29;;;;;;;2.10;1.25;;;20.60;47.90;;;;;;1011808;29;20371;-86
2021/05/01 02:03:00;;;;;;;2.67;1.20;;;20.60;47.90;;;;;;1016117;29;20016;-88
2021/05/01 02:03:30;;;;;;;2.63;1.27;;;20.60;47.90;;;;;;1019367;29;20035;-87
2021/05/01 02:04:01;;;;;;;1.48;1.20;;;20.60;48.00;;;;;;1012414;29;20047;-87
2021/05/01 02:04:31;;;;;;;1.20;1.10;;;20.60;48.00;;;;;;1011831;29;20044;-90
2021/05/01 02:05:03;;;;;;;2.10;1.05;;;20.60;48.00;;;;;;1011821;29;20013;-87
2021/05/01 02:05:33;;;;;;;1.20;1.10;;;20.60;47.90;;;;;;1012100;29;20017;-86
2021/05/01 02:06:04;;;;;;;1.60;1.20;;;20.60;48.00;;;;;;1011871;29;20387;-88
2021/05/01 02:06:35;;;;;;;1.40;1.20;;;20.60;48.00;;;;;;1012104;29;20115;-87
2021/05/01 02:07:05;;;;;;;3.83;1.42;;;20.60;48.10;;;;;;1015519;29;20360;-87
2021/05/01 02:07:36;;;;;;;1.20;1.10;;;20.60;48.00;;;;;;1012004;29;20013;-87
2021/05/01 02:08:06;;;;;;;1.67;1.13;;;20.60;48.00;;;;;;1011729;29;20064;-88
2021/05/01 02:08:37;;;;;;;2.17;1.30;;;20.60;48.00;;;;;;1015479;29;20435;-87
2021/05/01 02:09:07;;;;;;;1.10;1.00;;;20.60;48.00;;;;;;1011820;29;20089;-89
2021/05/01 02:09:38;;;;;;;1.35;1.20;;;20.60;48.00;;;;;;1012163;29;20016;-88
2021/05/01 02:10:09;;;;;;;1.33;1.20;;;20.60;48.10;;;;;;1007804;29;20411;-87
2021/05/01 02:10:40;;;;;;;1.80;1.30;;;20.60;48.10;;;;;;1011885;29;20055;-87
2021/05/01 02:11:10;;;;;;;1.35;1.10;;;20.60;48.10;;;;;;1015852;29;20030;-89
2021/05/01 02:11:41;;;;;;;1.38;1.27;;;20.60;48.00;;;;;;1016094;29;20028;-87
2021/05/01 02:12:12;;;;;;;1.63;1.40;;;20.60;48.10;;;;;;1004271;29;20037;-87
2021/05/01 02:12:42;;;;;;;1.17;0.95;;;20.60;48.00;;;;;;1008099;29;20376;-87
2021/05/01 02:13:13;;;;;;;1.48;1.10;;;20.60;48.00;;;;;;1008264;29;20029;-87
2021/05/01 02:13:44;;;;;;;1.42;1.17;;;20.60;48.00;;;;;;1015373;29;20020;-88
2021/05/01 02:14:14;;;;;;;4.30;1.10;;;20.60;47.90;;;;;;1011888;29;20136;-87
2021/05/01 02:14:45;;;;;;;1.00;1.00;;;20.60;47.80;;;;;;1012094;29;20036;-88
2021/05/01 02:15:18;;;;;;;1.75;1.17;;;20.60;48.10;;;;;;1010948;29;20021;-87
2021/05/01 02:15:48;;;;;;;1.10;1.00;;;20.60;47.70;;;;;;1012033;29;20017;-88
2021/05/01 02:16:19;;;;;;;2.20;1.10;;;20.60;47.70;;;;;;1011678;29;20407;-85
2021/05/01 02:16:49;;;;;;;1.27;1.08;;;20.60;47.80;;;;;;1012303;29;20031;-87
2021/05/01 02:17:20;;;;;;;1.35;1.10;;;20.70;47.90;;;;;;1012017;29;20045;-86
2021/05/01 02:17:52;;;;;;;1.77;1.17;;;20.60;47.80;;;;;;1012078;29;20025;-89
2021/05/01 02:18:22;;;;;;;1.23;1.00;;;20.60;47.90;;;;;;1019644;29;20030;-86
2021/05/01 02:18:53;;;;;;;2.65;1.10;;;20.60;47.90;;;;;;1019935;29;20406;-87
2021/05/01 02:19:23;;;;;;;1.35;1.15;;;20.60;47.90;;;;;;1020743;29;20012;-87
2021/05/01 02:19:54;;;;;;;2.42;1.23;;;20.60;47.90;;;;;;1016684;29;20020;-87
2021/05/01 02:20:34;;;;;;;1.45;1.17;;;20.60;48.00;;;;;;1016776;29;20020;-87
2021/05/01 02:21:05;;;;;;;2.90;1.00;;;20.50;47.90;;;;;;1017752;29;20020;-88
2021/05/01 02:21:35;;;;;;;1.98;1.20;;;20.60;48.00;;;;;;1016325;29;20422;-87
2021/05/01 02:22:06;;;;;;;1.30;1.20;;;20.60;48.10;;;;;;1020670;29;20497;-87
2021/05/01 02:22:36;;;;;;;2.00;1.02;;;20.50;48.10;;;;;;1016302;29;20114;-86
2021/05/01 02:23:07;;;;;;;1.33;1.00;;;20.60;48.10;;;;;;1016604;29;20038;-87
2021/05/01 02:23:37;;;;;;;2.55;1.00;;;20.60;48.10;;;;;;1019864;29;20019;-87
2021/05/01 02:24:08;;;;;;;1.05;0.90;;;20.50;48.00;;;;;;1016521;29;20043;-88
2021/05/01 02:24:38;;;;;;;1.42;1.00;;;20.60;48.00;;;;;;1008737;29;20025;-89
2021/05/01 02:25:10;;;;;;;1.60;1.00;;;20.60;48.10;;;;;;1012599;29;20499;-89
2021/05/01 02:25:41;;;;;;;1.35;1.20;;;20.60;48.10;;;;;;1016504;29;20079;-88
2021/05/01 02:26:11;;;;;;;1.27;1.08;;;20.60;48.10;;;;;;1008361;29;20021;-88
2021/05/01 02:26:42;;;;;;;2.45;1.35;;;20.60;48.10;;;;;;1016378;29;20071;-87
2021/05/01 02:27:12;;;;;;;1.20;1.10;;;20.50;48.00;;;;;;1008399;29;20021;-87
2021/05/01 02:27:43;;;;;;;1.13;1.02;;;20.60;48.10;;;;;;1008915;29;20024;-87
2021/05/01 02:28:16;;;;;;;1.90;1.10;;;20.50;48.10;;;;;;1012522;29;20519;-87
2021/05/01 02:28:46;;;;;;;1.42;0.98;;;20.50;48.10;;;;;;1012192;29;20092;-86
2021/05/01 02:29:17;;;;;;;1.27;1.17;;;20.60;48.10;;;;;;1016412;29;20418;-87
2021/05/01 02:29:47;;;;;;;1.05;0.95;;;20.50;48.10;;;;;;1008773;29;20021;-88
2021/05/01 02:30:22;;;;;;;1.33;1.00;;;20.50;48.10;;;;;;1000081;29;20045;-87
2021/05/01 02:30:52;;;;;;;1.02;0.90;;;20.60;48.20;;;;;;1008589;29;20044;-87
2021/05/01 02:31:23;;;;;;;1.15;1.05;;;20.50;48.10;;;;;;1016311;29;20030;-89
2021/05/01 02:31:54;;;;;;;1.40;1.10;;;20.50;48.20;;;;;;1008683;29;20384;-87
2021/05/01 02:32:24;;;;;;;1.48;1.02;;;20.60;48.10;;;;;;1012523;29;20407;-86
2021/05/01 02:32:56;;;;;;;1.52;1.10;;;20.50;48.10;;;;;;1012325;29;20623;-87
2021/05/01 02:33:28;;;;;;;1.20;0.93;;;20.50;48.10;;;;;;1008531;29;20044;-87
2021/05/01 02:33:58;;;;;;;2.75;1.17;;;20.60;48.20;;;;;;1008296;29;20033;-88
2021/05/01 02:34:28;;;;;;;2.45;0.90;;;20.60;48.10;;;;;;1012561;29;20024;-87
2021/05/01 02:34:59;;;;;;;1.10;1.00;;;20.60;48.10;;;;;;1012978;29;20029;-87
2021/05/01 02:35:31;;;;;;;1.55;1.10;;;20.60;48.10;;;;;;1017194;29;20019;-87
2021/05/01 02:36:01;;;;;;;3.10;1.30;;;20.60;48.10;;;;;;1017237;29;20040;-88
2021/05/01 02:36:32;;;;;;;1.20;1.10;;;20.60;48.10;;;;;;1016796;29;20048;-88
2021/05/01 02:37:02;;;;;;;1.15;1.05;;;20.60;48.10;;;;;;1016972;29;20028;-88
2021/05/01 02:37:33;;;;;;;1.02;0.93;;;20.60;48.10;;;;;;1012851;29;20060;-87
2021/05/01 02:38:04;;;;;;;3.40;1.10;;;20.60;48.20;;;;;;1009095;29;20056;-88
2021/05/01 02:38:34;;;;;;;2.15;0.98;;;20.60;48.10;;;;;;1012580;29;20031;-87
2021/05/01 02:39:05;;;;;;;1.13;0.90;;;20.60;48.20;;;;;;1016950;29;20019;-87
2021/05/01 02:39:36;;;;;;;1.42;1.25;;;20.60;48.10;;;;;;1009112;29;20241;-89
2021/05/01 02:40:08;;;;;;;1.00;0.90;;;20.60;48.10;;;;;;1009117;29;20013;-87
2021/05/01 02:40:38;;;;;;;1.17;1.08;;;20.60;48.10;;;;;;1009069;29;20027;-88
2021/05/01 02:41:09;;;;;;;3.05;1.17;;;20.50;48.20;;;;;;1012911;29;20487;-88
2021/05/01 02:41:39;;;;;;;0.98;0.90;;;20.50;48.20;;;;;;1013102;29;20030;-87